sensor_id;sensor_type;location;lat;lon;timestamp;temperature;humidity
23721;DHT22;42950;52.134;5.578;2022-09-29T00:00:12;8.20;99.90
23721;DHT22;42950;52.134;5.578;2022-09-29T00:02:39;8.20;99.90
23721;DHT22;42950;52.134;5.578;2022-09-29T00:05:05;8.20;99.90
23721;DHT22;42950;52.134;5.578;2022-09-29T00:07:31;8.10;99.90
23721;DHT22;42950;52.134;5.578;2022-09-29T00:09:57;8.10;99.90
23721;DHT22;42950;52.134;5.578;2022-09-29T00:12:24;8.10;99.90
23721;DHT22;42950;52.134;5.578;2022-09-29T00:14:50;8.10;99.90
23721;DHT22;42950;52.134;5.578;2022-09-29T00:17:16;8.00;99.90
23721;DHT22;42950;52.134;5.578;2022-09-29T00:19:42;8.00;99.90
23721;DHT22;42950;52.134;5.578;2022-09-29T00:22:07;8.00;99.90
23721;DHT22;42950;52.134;5.578;2022-09-29T00:24:33;7.90;99.90
23721;DHT22;42950;52.134;5.578;2022-09-29T00:26:59;7.90;99.90
23721;DHT22;42950;52.134;5.578;2022-09-29T00:29:25;8.00;99.90
23721;DHT22;42950;52.134;5.578;2022-09-29T00:31:51;7.90;99.90
23721;DHT22;42950;52.134;5.578;2022-09-29T00:34:17;7.90;99.90
23721;DHT22;42950;52.134;5.578;2022-09-29T00:36:42;7.80;99.90
23721;DHT22;42950;52.134;5.578;2022-09-29T00:39:09;7.80;99.90
23721;DHT22;42950;52.134;5.578;2022-09-29T00:41:37;7.80;99.90
23721;DHT22;42950;52.134;5.578;2022-09-29T00:49:23;7.80;99.90
23721;DHT22;42950;52.134;5.578;2022-09-29T00:52:22;7.80;99.90
23721;DHT22;42950;52.134;5.578;2022-09-29T00:54:52;7.70;99.90
23721;DHT22;42950;52.134;5.578;2022-09-29T00:57:24;7.60;99.90
23721;DHT22;42950;52.134;5.578;2022-09-29T00:59:59;7.60;99.90
23721;DHT22;42950;52.134;5.578;2022-09-29T01:02:27;7.50;99.90
23721;DHT22;42950;52.134;5.578;2022-09-29T01:04:54;7.50;99.90
23721;DHT22;42950;52.134;5.578;2022-09-29T01:07:22;7.50;99.90
23721;DHT22;42950;52.134;5.578;2022-09-29T01:09:49;7.60;99.90
23721;DHT22;42950;52.134;5.578;2022-09-29T01:12:16;7.50;99.90
23721;DHT22;42950;52.134;5.578;2022-09-29T01:14:42;7.50;99.90
23721;DHT22;42950;52.134;5.578;2022-09-29T01:17:08;7.50;99.90
23721;DHT22;42950;52.134;5.578;2022-09-29T01:28:30;7.50;99.90
23721;DHT22;42950;52.134;5.578;2022-09-29T01:36:39;7.30;99.90
23721;DHT22;42950;52.134;5.578;2022-09-29T01:39:16;7.30;99.90
23721;DHT22;42950;52.134;5.578;2022-09-29T01:41:50;7.30;99.90
23721;DHT22;42950;52.134;5.578;2022-09-29T01:44:22;7.30;99.90
23721;DHT22;42950;52.134;5.578;2022-09-29T01:49:59;7.20;99.90
23721;DHT22;42950;52.134;5.578;2022-09-29T01:52:29;7.20;99.90
23721;DHT22;42950;52.134;5.578;2022-09-29T01:55:00;7.10;99.90
23721;DHT22;42950;52.134;5.578;2022-09-29T02:00:10;7.10;99.90
23721;DHT22;42950;52.134;5.578;2022-09-29T02:05:23;7.10;99.90
23721;DHT22;42950;52.134;5.578;2022-09-29T02:07:50;7.10;99.90
23721;DHT22;42950;52.134;5.578;2022-09-29T02:10:32;7.00;99.90
23721;DHT22;42950;52.134;5.578;2022-09-29T02:13:02;7.00;99.90
23721;DHT22;42950;52.134;5.578;2022-09-29T02:15:32;7.00;99.90
23721;DHT22;42950;52.134;5.578;2022-09-29T02:18:02;7.00;99.90
23721;DHT22;42950;52.134;5.578;2022-09-29T02:20:30;7.00;99.90
23721;DHT22;42950;52.134;5.578;2022-09-29T02:22:56;6.90;99.90
23721;DHT22;42950;52.134;5.578;2022-09-29T02:25:23;7.00;99.90
23721;DHT22;42950;52.134;5.578;2022-09-29T02:27:50;6.90;99.90
23721;DHT22;42950;52.134;5.578;2022-09-29T02:30:16;6.90;99.90
23721;DHT22;42950;52.134;5.578;2022-09-29T02:32:42;6.90;99.90
23721;DHT22;42950;52.134;5.578;2022-09-29T02:35:11;6.90;99.90
23721;DHT22;42950;52.134;5.578;2022-09-29T02:38:05;6.90;99.90
23721;DHT22;42950;52.134;5.578;2022-09-29T02:46:54;6.80;99.90
23721;DHT22;42950;52.134;5.578;2022-09-29T02:49:35;6.80;99.90
23721;DHT22;42950;52.134;5.578;2022-09-29T02:52:17;6.80;99.90
23721;DHT22;42950;52.134;5.578;2022-09-29T02:57:39;6.80;99.90
23721;DHT22;42950;52.134;5.578;2022-09-29T03:00:12;6.80;99.90
23721;DHT22;42950;52.134;5.578;2022-09-29T03:02:40;6.70;99.90
23721;DHT22;42950;52.134;5.578;2022-09-29T03:05:10;6.70;99.90
23721;DHT22;42950;52.134;5.578;2022-09-29T03:07:37;6.70;99.90
23721;DHT22;42950;52.134;5.578;2022-09-29T03:10:05;6.70;99.90
23721;DHT22;42950;52.134;5.578;2022-09-29T03:12:31;6.70;99.90
23721;DHT22;42950;52.134;5.578;2022-09-29T03:14:57;6.70;99.90
23721;DHT22;42950;52.134;5.578;2022-09-29T03:17:23;6.70;99.90
23721;DHT22;42950;52.134;5.578;2022-09-29T03:19:49;6.70;99.90
23721;DHT22;42950;52.134;5.578;2022-09-29T03:22:15;6.70;99.90
23721;DHT22;42950;52.134;5.578;2022-09-29T03:24:42;6.70;99.90
23721;DHT22;42950;52.134;5.578;2022-09-29T03:27:07;6.70;99.90
23721;DHT22;42950;52.134;5.578;2022-09-29T03:29:34;6.70;99.90
23721;DHT22;42950;52.134;5.578;2022-09-29T03:32:01;6.60;99.90
23721;DHT22;42950;52.134;5.578;2022-09-29T03:34:27;6.60;99.90
23721;DHT22;42950;52.134;5.578;2022-09-29T03:36:52;6.60;99.90
23721;DHT22;42950;52.134;5.578;2022-09-29T03:39:18;6.60;99.90
23721;DHT22;42950;52.134;5.578;2022-09-29T03:41:45;6.60;99.90
23721;DHT22;42950;52.134;5.578;2022-09-29T03:44:10;6.60;99.90
23721;DHT22;42950;52.134;5.578;2022-09-29T03:46:36;6.50;99.90
23721;DHT22;42950;52.134;5.578;2022-09-29T03:49:02;6.50;99.90
23721;DHT22;42950;52.134;5.578;2022-09-29T03:51:27;6.50;99.90
23721;DHT22;42950;52.134;5.578;2022-09-29T03:53:53;6.40;99.90
23721;DHT22;42950;52.134;5.578;2022-09-29T03:56:19;6.40;99.90
23721;DHT22;42950;52.134;5.578;2022-09-29T03:58:45;6.40;99.90
23721;DHT22;42950;52.134;5.578;2022-09-29T04:01:10;6.40;99.90
23721;DHT22;42950;52.134;5.578;2022-09-29T04:03:36;6.40;99.90
23721;DHT22;42950;52.134;5.578;2022-09-29T04:06:02;6.40;99.90
23721;DHT22;42950;52.134;5.578;2022-09-29T04:08:29;6.40;99.90
23721;DHT22;42950;52.134;5.578;2022-09-29T04:10:54;6.30;99.90
23721;DHT22;42950;52.134;5.578;2022-09-29T04:13:21;6.30;99.90
23721;DHT22;42950;52.134;5.578;2022-09-29T04:15:50;6.30;99.90
23721;DHT22;42950;52.134;5.578;2022-09-29T04:18:15;6.30;99.90
23721;DHT22;42950;52.134;5.578;2022-09-29T04:20:41;6.30;99.90
23721;DHT22;42950;52.134;5.578;2022-09-29T04:23:07;6.20;99.90
23721;DHT22;42950;52.134;5.578;2022-09-29T04:25:33;6.20;99.90
23721;DHT22;42950;52.134;5.578;2022-09-29T04:27:59;6.20;99.90
23721;DHT22;42950;52.134;5.578;2022-09-29T04:30:25;6.20;99.90
23721;DHT22;42950;52.134;5.578;2022-09-29T04:32:52;6.20;99.90
23721;DHT22;42950;52.134;5.578;2022-09-29T04:35:17;6.20;99.90
23721;DHT22;42950;52.134;5.578;2022-09-29T04:37:43;6.10;99.90
23721;DHT22;42950;52.134;5.578;2022-09-29T04:40:10;6.10;99.90
23721;DHT22;42950;52.134;5.578;2022-09-29T04:42:37;6.10;99.90
23721;DHT22;42950;52.134;5.578;2022-09-29T04:45:03;6.10;99.90
23721;DHT22;42950;52.134;5.578;2022-09-29T04:47:29;6.10;99.90
23721;DHT22;42950;52.134;5.578;2022-09-29T04:49:57;6.10;99.90
23721;DHT22;42950;52.134;5.578;2022-09-29T04:52:23;6.10;99.90
23721;DHT22;42950;52.134;5.578;2022-09-29T04:54:48;6.10;99.90
23721;DHT22;42950;52.134;5.578;2022-09-29T04:57:18;6.10;99.90
23721;DHT22;42950;52.134;5.578;2022-09-29T04:59:43;6.10;99.90
23721;DHT22;42950;52.134;5.578;2022-09-29T05:02:10;6.00;99.90
23721;DHT22;42950;52.134;5.578;2022-09-29T05:04:36;6.00;99.90
23721;DHT22;42950;52.134;5.578;2022-09-29T05:07:01;6.00;99.90
23721;DHT22;42950;52.134;5.578;2022-09-29T05:09:27;6.00;99.90
23721;DHT22;42950;52.134;5.578;2022-09-29T05:11:53;6.00;99.90
23721;DHT22;42950;52.134;5.578;2022-09-29T05:14:19;6.00;99.90
23721;DHT22;42950;52.134;5.578;2022-09-29T05:16:44;5.90;99.90
23721;DHT22;42950;52.134;5.578;2022-09-29T05:19:10;5.90;99.90
23721;DHT22;42950;52.134;5.578;2022-09-29T05:21:35;5.90;99.90
23721;DHT22;42950;52.134;5.578;2022-09-29T05:24:01;5.90;99.90
23721;DHT22;42950;52.134;5.578;2022-09-29T05:26:27;5.90;99.90
23721;DHT22;42950;52.134;5.578;2022-09-29T05:28:52;5.80;99.90
23721;DHT22;42950;52.134;5.578;2022-09-29T05:31:18;5.80;99.90
23721;DHT22;42950;52.134;5.578;2022-09-29T05:33:44;5.80;99.90
23721;DHT22;42950;52.134;5.578;2022-09-29T05:36:11;5.80;99.90
23721;DHT22;42950;52.134;5.578;2022-09-29T05:38:38;5.80;99.90
23721;DHT22;42950;52.134;5.578;2022-09-29T05:41:11;5.80;99.90
23721;DHT22;42950;52.134;5.578;2022-09-29T05:43:37;5.80;99.90
23721;DHT22;42950;52.134;5.578;2022-09-29T05:46:05;5.80;99.90
23721;DHT22;42950;52.134;5.578;2022-09-29T05:48:31;5.80;99.90
23721;DHT22;42950;52.134;5.578;2022-09-29T05:50:57;5.80;99.90
23721;DHT22;42950;52.134;5.578;2022-09-29T05:53:23;5.70;99.90
23721;DHT22;42950;52.134;5.578;2022-09-29T05:55:49;5.80;99.90
23721;DHT22;42950;52.134;5.578;2022-09-29T05:58:14;5.80;99.90
23721;DHT22;42950;52.134;5.578;2022-09-29T06:00:40;5.80;99.90
23721;DHT22;42950;52.134;5.578;2022-09-29T06:03:06;5.80;99.90
23721;DHT22;42950;52.134;5.578;2022-09-29T06:05:31;5.70;99.90
23721;DHT22;42950;52.134;5.578;2022-09-29T06:07:57;5.80;99.90
23721;DHT22;42950;52.134;5.578;2022-09-29T06:10:23;5.80;99.90
23721;DHT22;42950;52.134;5.578;2022-09-29T06:12:48;5.80;99.90
23721;DHT22;42950;52.134;5.578;2022-09-29T06:15:14;5.80;99.90
23721;DHT22;42950;52.134;5.578;2022-09-29T06:17:40;5.90;99.90
23721;DHT22;42950;52.134;5.578;2022-09-29T06:20:06;5.90;99.90
23721;DHT22;42950;52.134;5.578;2022-09-29T06:22:32;6.00;99.90
23721;DHT22;42950;52.134;5.578;2022-09-29T06:24:58;6.00;99.90
23721;DHT22;42950;52.134;5.578;2022-09-29T06:27:24;6.10;99.90
23721;DHT22;42950;52.134;5.578;2022-09-29T06:29:49;6.10;99.90
23721;DHT22;42950;52.134;5.578;2022-09-29T06:32:15;6.20;99.90
23721;DHT22;42950;52.134;5.578;2022-09-29T06:34:40;6.20;99.90
23721;DHT22;42950;52.134;5.578;2022-09-29T06:37:25;6.30;99.90
23721;DHT22;42950;52.134;5.578;2022-09-29T06:40:02;6.30;99.90
23721;DHT22;42950;52.134;5.578;2022-09-29T06:42:28;6.30;99.90
23721;DHT22;42950;52.134;5.578;2022-09-29T06:44:54;6.40;99.90
23721;DHT22;42950;52.134;5.578;2022-09-29T06:47:20;6.40;99.90
23721;DHT22;42950;52.134;5.578;2022-09-29T06:49:45;6.50;99.90
23721;DHT22;42950;52.134;5.578;2022-09-29T06:52:11;6.50;99.90
23721;DHT22;42950;52.134;5.578;2022-09-29T06:54:36;6.60;99.90
23721;DHT22;42950;52.134;5.578;2022-09-29T06:57:02;6.60;99.90
23721;DHT22;42950;52.134;5.578;2022-09-29T06:59:27;6.60;99.90
23721;DHT22;42950;52.134;5.578;2022-09-29T07:01:53;6.70;99.90
23721;DHT22;42950;52.134;5.578;2022-09-29T07:04:20;6.70;99.90
23721;DHT22;42950;52.134;5.578;2022-09-29T07:06:45;6.70;99.90
23721;DHT22;42950;52.134;5.578;2022-09-29T07:09:12;6.80;99.90
23721;DHT22;42950;52.134;5.578;2022-09-29T07:11:41;6.80;99.90
23721;DHT22;42950;52.134;5.578;2022-09-29T07:14:15;6.80;99.90
23721;DHT22;42950;52.134;5.578;2022-09-29T07:16:41;6.90;99.90
23721;DHT22;42950;52.134;5.578;2022-09-29T07:19:07;6.90;99.90
23721;DHT22;42950;52.134;5.578;2022-09-29T07:21:33;7.00;99.90
23721;DHT22;42950;52.134;5.578;2022-09-29T07:23:59;7.00;99.90
23721;DHT22;42950;52.134;5.578;2022-09-29T07:26:24;7.10;99.90
23721;DHT22;42950;52.134;5.578;2022-09-29T07:28:50;7.10;99.90
23721;DHT22;42950;52.134;5.578;2022-09-29T07:31:18;7.20;99.90
23721;DHT22;42950;52.134;5.578;2022-09-29T07:33:45;7.30;99.90
23721;DHT22;42950;52.134;5.578;2022-09-29T07:36:12;7.40;99.90
23721;DHT22;42950;52.134;5.578;2022-09-29T07:38:38;7.40;99.90
23721;DHT22;42950;52.134;5.578;2022-09-29T07:41:08;7.50;99.90
23721;DHT22;42950;52.134;5.578;2022-09-29T07:43:35;7.50;99.90
23721;DHT22;42950;52.134;5.578;2022-09-29T07:46:01;7.60;99.90
23721;DHT22;42950;52.134;5.578;2022-09-29T07:48:28;7.60;99.90
23721;DHT22;42950;52.134;5.578;2022-09-29T07:51:07;7.60;99.90
23721;DHT22;42950;52.134;5.578;2022-09-29T07:53:35;7.70;99.90
23721;DHT22;42950;52.134;5.578;2022-09-29T07:56:12;7.80;99.90
23721;DHT22;42950;52.134;5.578;2022-09-29T07:58:38;7.80;99.90
23721;DHT22;42950;52.134;5.578;2022-09-29T08:01:05;7.90;99.90
23721;DHT22;42950;52.134;5.578;2022-09-29T08:03:38;8.00;99.90
23721;DHT22;42950;52.134;5.578;2022-09-29T08:06:05;8.20;99.90
23721;DHT22;42950;52.134;5.578;2022-09-29T08:08:30;8.20;99.90
23721;DHT22;42950;52.134;5.578;2022-09-29T08:11:22;8.20;99.90
23721;DHT22;42950;52.134;5.578;2022-09-29T08:13:50;8.30;99.90
23721;DHT22;42950;52.134;5.578;2022-09-29T08:16:17;8.30;99.90
23721;DHT22;42950;52.134;5.578;2022-09-29T08:18:43;8.30;99.90
23721;DHT22;42950;52.134;5.578;2022-09-29T08:21:09;8.40;99.90
23721;DHT22;42950;52.134;5.578;2022-09-29T08:23:37;8.50;99.90
23721;DHT22;42950;52.134;5.578;2022-09-29T08:26:08;8.60;99.90
23721;DHT22;42950;52.134;5.578;2022-09-29T08:28:35;8.80;99.90
23721;DHT22;42950;52.134;5.578;2022-09-29T08:31:03;8.80;99.90
23721;DHT22;42950;52.134;5.578;2022-09-29T08:33:28;8.90;99.90
23721;DHT22;42950;52.134;5.578;2022-09-29T08:35:58;8.90;99.90
23721;DHT22;42950;52.134;5.578;2022-09-29T08:38:25;9.00;99.90
23721;DHT22;42950;52.134;5.578;2022-09-29T08:40:51;9.00;99.90
23721;DHT22;42950;52.134;5.578;2022-09-29T08:43:33;9.10;99.90
23721;DHT22;42950;52.134;5.578;2022-09-29T08:46:04;9.10;99.90
23721;DHT22;42950;52.134;5.578;2022-09-29T08:48:35;9.30;99.90
23721;DHT22;42950;52.134;5.578;2022-09-29T08:51:04;9.40;99.90
23721;DHT22;42950;52.134;5.578;2022-09-29T08:53:34;9.50;99.90
23721;DHT22;42950;52.134;5.578;2022-09-29T08:56:13;9.60;99.90
23721;DHT22;42950;52.134;5.578;2022-09-29T08:58:40;9.70;99.90
23721;DHT22;42950;52.134;5.578;2022-09-29T09:07:14;10.00;99.90
23721;DHT22;42950;52.134;5.578;2022-09-29T09:10:11;10.10;99.90
23721;DHT22;42950;52.134;5.578;2022-09-29T09:12:44;9.90;99.90
23721;DHT22;42950;52.134;5.578;2022-09-29T09:18:22;10.10;99.90
23721;DHT22;42950;52.134;5.578;2022-09-29T09:21:06;10.00;99.90
23721;DHT22;42950;52.134;5.578;2022-09-29T09:23:36;9.90;99.90
23721;DHT22;42950;52.134;5.578;2022-09-29T09:26:04;10.10;99.90
23721;DHT22;42950;52.134;5.578;2022-09-29T09:28:48;10.30;99.90
23721;DHT22;42950;52.134;5.578;2022-09-29T09:31:22;10.40;99.90
23721;DHT22;42950;52.134;5.578;2022-09-29T09:39:05;10.60;99.90
23721;DHT22;42950;52.134;5.578;2022-09-29T09:41:36;10.80;99.90
23721;DHT22;42950;52.134;5.578;2022-09-29T09:44:11;11.00;99.90
23721;DHT22;42950;52.134;5.578;2022-09-29T09:46:52;11.20;99.90
23721;DHT22;42950;52.134;5.578;2022-09-29T09:49:25;11.30;99.90
23721;DHT22;42950;52.134;5.578;2022-09-29T09:52:08;11.40;99.90
23721;DHT22;42950;52.134;5.578;2022-09-29T09:54:39;11.60;99.90
23721;DHT22;42950;52.134;5.578;2022-09-29T10:02:26;11.50;99.90
23721;DHT22;42950;52.134;5.578;2022-09-29T10:04:52;11.70;99.90
23721;DHT22;42950;52.134;5.578;2022-09-29T10:07:19;11.70;99.90
23721;DHT22;42950;52.134;5.578;2022-09-29T10:09:46;11.80;99.90
23721;DHT22;42950;52.134;5.578;2022-09-29T10:12:18;12.00;99.90
23721;DHT22;42950;52.134;5.578;2022-09-29T10:15:03;12.20;99.90
23721;DHT22;42950;52.134;5.578;2022-09-29T10:17:35;12.40;99.90
23721;DHT22;42950;52.134;5.578;2022-09-29T10:20:04;12.50;99.90
23721;DHT22;42950;52.134;5.578;2022-09-29T10:22:31;12.60;99.90
23721;DHT22;42950;52.134;5.578;2022-09-29T10:25:11;12.60;99.90
23721;DHT22;42950;52.134;5.578;2022-09-29T10:27:45;12.70;99.90
23721;DHT22;42950;52.134;5.578;2022-09-29T10:30:21;12.80;99.90
23721;DHT22;42950;52.134;5.578;2022-09-29T10:32:48;13.00;99.90
23721;DHT22;42950;52.134;5.578;2022-09-29T10:37:50;13.30;99.90
23721;DHT22;42950;52.134;5.578;2022-09-29T10:40:18;13.60;99.90
23721;DHT22;42950;52.134;5.578;2022-09-29T10:42:48;13.90;99.90
23721;DHT22;42950;52.134;5.578;2022-09-29T10:45:16;13.90;99.90
23721;DHT22;42950;52.134;5.578;2022-09-29T10:50:32;14.00;99.90
23721;DHT22;42950;52.134;5.578;2022-09-29T10:53:17;13.90;99.90
23721;DHT22;42950;52.134;5.578;2022-09-29T10:55:48;14.00;99.90
23721;DHT22;42950;52.134;5.578;2022-09-29T10:58:39;14.40;99.90
23721;DHT22;42950;52.134;5.578;2022-09-29T11:01:10;14.50;99.90
23721;DHT22;42950;52.134;5.578;2022-09-29T11:03:52;14.50;99.90
23721;DHT22;42950;52.134;5.578;2022-09-29T11:06:26;14.50;99.90
23721;DHT22;42950;52.134;5.578;2022-09-29T11:11:25;14.90;99.90
23721;DHT22;42950;52.134;5.578;2022-09-29T11:13:51;14.90;99.90
23721;DHT22;42950;52.134;5.578;2022-09-29T11:16:29;15.00;99.90
23721;DHT22;42950;52.134;5.578;2022-09-29T11:32:14;15.10;99.90
23721;DHT22;42950;52.134;5.578;2022-09-29T11:43:30;15.50;99.90
23721;DHT22;42950;52.134;5.578;2022-09-29T11:50:59;16.10;99.90
23721;DHT22;42950;52.134;5.578;2022-09-29T11:56:15;16.20;99.90
23721;DHT22;42950;52.134;5.578;2022-09-29T11:58:59;16.20;99.90
23721;DHT22;42950;52.134;5.578;2022-09-29T12:04:56;16.20;99.90
23721;DHT22;42950;52.134;5.578;2022-09-29T12:15:59;16.60;99.90
23721;DHT22;42950;52.134;5.578;2022-09-29T12:21:29;16.80;99.90
23721;DHT22;42950;52.134;5.578;2022-09-29T12:23:57;17.00;99.90
23721;DHT22;42950;52.134;5.578;2022-09-29T12:26:24;17.20;99.90
23721;DHT22;42950;52.134;5.578;2022-09-29T12:29:07;17.30;99.90
23721;DHT22;42950;52.134;5.578;2022-09-29T12:31:40;17.30;99.90
23721;DHT22;42950;52.134;5.578;2022-09-29T12:51:35;17.60;99.90
23721;DHT22;42950;52.134;5.578;2022-09-29T12:54:22;17.40;99.90
23721;DHT22;42950;52.134;5.578;2022-09-29T12:56:58;17.40;99.90
23721;DHT22;42950;52.134;5.578;2022-09-29T12:59:34;17.50;99.90
23721;DHT22;42950;52.134;5.578;2022-09-29T13:07:56;17.90;99.90
23721;DHT22;42950;52.134;5.578;2022-09-29T13:24:34;17.30;99.90
23721;DHT22;42950;52.134;5.578;2022-09-29T13:30:17;17.20;99.90
23721;DHT22;42950;52.134;5.578;2022-09-29T13:32:38;17.10;99.90
23721;DHT22;42950;52.134;5.578;2022-09-29T13:35:11;16.90;99.90
23721;DHT22;42950;52.134;5.578;2022-09-29T13:37:50;17.00;99.90
23721;DHT22;42950;52.134;5.578;2022-09-29T13:40:28;17.10;99.90
23721;DHT22;42950;52.134;5.578;2022-09-29T13:42:58;17.10;99.90
23721;DHT22;42950;52.134;5.578;2022-09-29T13:47:54;17.20;99.90
23721;DHT22;42950;52.134;5.578;2022-09-29T13:50:39;17.40;99.90
23721;DHT22;42950;52.134;5.578;2022-09-29T13:58:29;17.50;99.90
23721;DHT22;42950;52.134;5.578;2022-09-29T14:00:59;17.30;99.90
23721;DHT22;42950;52.134;5.578;2022-09-29T14:03:36;17.10;99.90
23721;DHT22;42950;52.134;5.578;2022-09-29T14:06:16;17.20;99.90
23721;DHT22;42950;52.134;5.578;2022-09-29T14:08:52;17.20;99.90
23721;DHT22;42950;52.134;5.578;2022-09-29T14:11:23;17.10;99.90
23721;DHT22;42950;52.134;5.578;2022-09-29T14:22:04;17.30;99.90
23721;DHT22;42950;52.134;5.578;2022-09-29T14:24:50;17.40;99.90
23721;DHT22;42950;52.134;5.578;2022-09-29T14:29:59;17.10;99.90
23721;DHT22;42950;52.134;5.578;2022-09-29T14:32:56;17.20;99.90
23721;DHT22;42950;52.134;5.578;2022-09-29T14:35:35;17.10;99.90
23721;DHT22;42950;52.134;5.578;2022-09-29T14:43:41;17.10;99.90
23721;DHT22;42950;52.134;5.578;2022-09-29T14:46:28;17.00;99.90
23721;DHT22;42950;52.134;5.578;2022-09-29T15:03:23;16.60;99.90
23721;DHT22;42950;52.134;5.578;2022-09-29T15:08:37;16.80;99.90
23721;DHT22;42950;52.134;5.578;2022-09-29T15:11:22;16.60;99.90
23721;DHT22;42950;52.134;5.578;2022-09-29T15:13:48;16.60;99.90
23721;DHT22;42950;52.134;5.578;2022-09-29T15:16:26;16.60;99.90
23721;DHT22;42950;52.134;5.578;2022-09-29T15:21:42;16.70;99.90
23721;DHT22;42950;52.134;5.578;2022-09-29T15:27:05;17.00;99.90
23721;DHT22;42950;52.134;5.578;2022-09-29T15:29:34;17.00;99.90
23721;DHT22;42950;52.134;5.578;2022-09-29T15:32:00;17.00;99.90
23721;DHT22;42950;52.134;5.578;2022-09-29T15:34:26;17.00;99.90
23721;DHT22;42950;52.134;5.578;2022-09-29T15:36:54;16.90;99.90
23721;DHT22;42950;52.134;5.578;2022-09-29T15:42:02;16.90;99.90
23721;DHT22;42950;52.134;5.578;2022-09-29T15:44:29;16.90;99.90
23721;DHT22;42950;52.134;5.578;2022-09-29T15:46:58;16.90;99.90
23721;DHT22;42950;52.134;5.578;2022-09-29T15:49:25;16.80;99.90
23721;DHT22;42950;52.134;5.578;2022-09-29T15:54:21;16.70;99.90
23721;DHT22;42950;52.134;5.578;2022-09-29T15:56:47;16.40;99.90
23721;DHT22;42950;52.134;5.578;2022-09-29T15:59:46;16.40;99.90
23721;DHT22;42950;52.134;5.578;2022-09-29T16:05:00;16.50;99.90
23721;DHT22;42950;52.134;5.578;2022-09-29T16:07:30;16.50;99.90
23721;DHT22;42950;52.134;5.578;2022-09-29T16:10:03;16.40;99.90
23721;DHT22;42950;52.134;5.578;2022-09-29T16:12:34;16.30;99.90
23721;DHT22;42950;52.134;5.578;2022-09-29T16:15:01;16.30;99.90
23721;DHT22;42950;52.134;5.578;2022-09-29T16:17:27;16.20;99.90
23721;DHT22;42950;52.134;5.578;2022-09-29T16:19:53;15.90;99.90
23721;DHT22;42950;52.134;5.578;2022-09-29T16:22:23;15.80;99.90
23721;DHT22;42950;52.134;5.578;2022-09-29T16:24:53;15.80;99.90
23721;DHT22;42950;52.134;5.578;2022-09-29T16:27:40;15.80;99.90
23721;DHT22;42950;52.134;5.578;2022-09-29T16:30:31;15.60;99.90
23721;DHT22;42950;52.134;5.578;2022-09-29T16:33:19;15.60;99.90
23721;DHT22;42950;52.134;5.578;2022-09-29T16:35:47;15.70;99.90
23721;DHT22;42950;52.134;5.578;2022-09-29T16:38:28;15.60;99.90
23721;DHT22;42950;52.134;5.578;2022-09-29T16:41:09;15.60;99.90
23721;DHT22;42950;52.134;5.578;2022-09-29T16:43:36;15.60;99.90
23721;DHT22;42950;52.134;5.578;2022-09-29T16:46:05;15.60;99.90
23721;DHT22;42950;52.134;5.578;2022-09-29T16:48:36;15.40;99.90
23721;DHT22;42950;52.134;5.578;2022-09-29T16:51:06;15.40;99.90
23721;DHT22;42950;52.134;5.578;2022-09-29T16:53:33;15.40;99.90
23721;DHT22;42950;52.134;5.578;2022-09-29T16:56:00;15.40;99.90
23721;DHT22;42950;52.134;5.578;2022-09-29T16:58:27;15.30;99.90
23721;DHT22;42950;52.134;5.578;2022-09-29T17:00:53;15.20;99.90
23721;DHT22;42950;52.134;5.578;2022-09-29T17:03:18;15.10;99.90
23721;DHT22;42950;52.134;5.578;2022-09-29T17:05:44;15.00;99.90
23721;DHT22;42950;52.134;5.578;2022-09-29T17:08:34;14.90;99.90
23721;DHT22;42950;52.134;5.578;2022-09-29T17:10:59;14.80;99.90
23721;DHT22;42950;52.134;5.578;2022-09-29T17:13:29;14.70;99.90
23721;DHT22;42950;52.134;5.578;2022-09-29T17:15:55;14.70;99.90
23721;DHT22;42950;52.134;5.578;2022-09-29T17:18:21;14.60;99.90
23721;DHT22;42950;52.134;5.578;2022-09-29T17:20:49;14.60;99.90
23721;DHT22;42950;52.134;5.578;2022-09-29T17:23:15;14.40;99.90
23721;DHT22;42950;52.134;5.578;2022-09-29T17:25:43;14.30;99.90
23721;DHT22;42950;52.134;5.578;2022-09-29T17:28:18;14.30;99.90
23721;DHT22;42950;52.134;5.578;2022-09-29T17:30:47;14.10;99.90
23721;DHT22;42950;52.134;5.578;2022-09-29T17:33:14;14.10;99.90
23721;DHT22;42950;52.134;5.578;2022-09-29T17:35:47;14.00;99.90
23721;DHT22;42950;52.134;5.578;2022-09-29T17:38:14;13.90;99.90
23721;DHT22;42950;52.134;5.578;2022-09-29T17:43:08;13.60;99.90
23721;DHT22;42950;52.134;5.578;2022-09-29T17:45:34;13.50;99.90
23721;DHT22;42950;52.134;5.578;2022-09-29T17:48:01;13.50;99.90
23721;DHT22;42950;52.134;5.578;2022-09-29T17:50:44;13.40;99.90
23721;DHT22;42950;52.134;5.578;2022-09-29T17:53:11;13.30;99.90
23721;DHT22;42950;52.134;5.578;2022-09-29T17:55:38;13.20;99.90
23721;DHT22;42950;52.134;5.578;2022-09-29T17:58:05;13.20;99.90
23721;DHT22;42950;52.134;5.578;2022-09-29T18:00:34;13.20;99.90
23721;DHT22;42950;52.134;5.578;2022-09-29T18:03:04;13.10;99.90
23721;DHT22;42950;52.134;5.578;2022-09-29T18:05:31;13.10;99.90
23721;DHT22;42950;52.134;5.578;2022-09-29T18:07:58;13.00;99.90
23721;DHT22;42950;52.134;5.578;2022-09-29T18:10:29;13.00;99.90
23721;DHT22;42950;52.134;5.578;2022-09-29T18:12:56;13.00;99.90
23721;DHT22;42950;52.134;5.578;2022-09-29T18:15:22;13.00;99.90
23721;DHT22;42950;52.134;5.578;2022-09-29T18:17:48;12.90;99.90
23721;DHT22;42950;52.134;5.578;2022-09-29T18:20:19;12.80;99.90
23721;DHT22;42950;52.134;5.578;2022-09-29T18:22:45;12.80;99.90
23721;DHT22;42950;52.134;5.578;2022-09-29T18:25:12;12.60;99.90
23721;DHT22;42950;52.134;5.578;2022-09-29T18:27:37;12.60;99.90
23721;DHT22;42950;52.134;5.578;2022-09-29T18:32:48;12.50;99.90
23721;DHT22;42950;52.134;5.578;2022-09-29T18:35:17;12.40;99.90
23721;DHT22;42950;52.134;5.578;2022-09-29T18:37:43;12.30;99.90
23721;DHT22;42950;52.134;5.578;2022-09-29T18:40:09;12.30;99.90
23721;DHT22;42950;52.134;5.578;2022-09-29T18:42:39;12.20;99.90
23721;DHT22;42950;52.134;5.578;2022-09-29T18:45:09;12.10;99.90
23721;DHT22;42950;52.134;5.578;2022-09-29T18:47:34;12.00;99.90
23721;DHT22;42950;52.134;5.578;2022-09-29T18:50:00;12.10;99.90
23721;DHT22;42950;52.134;5.578;2022-09-29T18:52:25;12.00;99.90
23721;DHT22;42950;52.134;5.578;2022-09-29T18:54:53;12.00;99.90
23721;DHT22;42950;52.134;5.578;2022-09-29T18:57:18;11.90;99.90
23721;DHT22;42950;52.134;5.578;2022-09-29T18:59:44;11.90;99.90
23721;DHT22;42950;52.134;5.578;2022-09-29T19:02:11;11.90;99.90
23721;DHT22;42950;52.134;5.578;2022-09-29T19:04:37;11.80;99.90
23721;DHT22;42950;52.134;5.578;2022-09-29T19:07:02;11.80;99.90
23721;DHT22;42950;52.134;5.578;2022-09-29T19:09:32;11.70;99.90
23721;DHT22;42950;52.134;5.578;2022-09-29T19:11:58;11.70;99.90
23721;DHT22;42950;52.134;5.578;2022-09-29T19:14:23;11.70;99.90
23721;DHT22;42950;52.134;5.578;2022-09-29T19:16:49;11.60;99.90
23721;DHT22;42950;52.134;5.578;2022-09-29T19:19:14;11.60;99.90
23721;DHT22;42950;52.134;5.578;2022-09-29T19:21:40;11.60;99.90
23721;DHT22;42950;52.134;5.578;2022-09-29T19:24:07;11.50;99.90